sensor_id;sensor_type;location;lat;lon;timestamp;temperature;humidity
18593;DHT22;9426;54.118;17.948;2022-12-29T00:04:19;5.80;99.90
18593;DHT22;9426;54.118;17.948;2022-12-29T00:09:45;5.90;99.90
18593;DHT22;9426;54.118;17.948;2022-12-29T00:15:08;5.80;99.90
18593;DHT22;9426;54.118;17.948;2022-12-29T00:20:50;5.80;99.90
18593;DHT22;9426;54.118;17.948;2022-12-29T00:26:37;5.80;99.90
18593;DHT22;9426;54.118;17.948;2022-12-29T00:32:18;5.80;99.90
18593;DHT22;9426;54.118;17.948;2022-12-29T00:38:03;5.90;99.90
18593;DHT22;9426;54.118;17.948;2022-12-29T00:43:47;5.90;99.90
18593;DHT22;9426;54.118;17.948;2022-12-29T00:49:29;5.80;99.90
18593;DHT22;9426;54.118;17.948;2022-12-29T00:54:54;5.90;99.90
18593;DHT22;9426;54.118;17.948;2022-12-29T01:00:19;5.80;99.90
18593;DHT22;9426;54.118;17.948;2022-12-29T01:05:43;5.90;99.90
18593;DHT22;9426;54.118;17.948;2022-12-29T01:11:10;5.90;99.90
18593;DHT22;9426;54.118;17.948;2022-12-29T01:16:35;5.90;99.90
18593;DHT22;9426;54.118;17.948;2022-12-29T01:21:59;5.90;99.90
18593;DHT22;9426;54.118;17.948;2022-12-29T01:27:23;5.90;99.90
18593;DHT22;9426;54.118;17.948;2022-12-29T01:32:48;5.80;99.90
18593;DHT22;9426;54.118;17.948;2022-12-29T01:38:13;5.80;99.90
18593;DHT22;9426;54.118;17.948;2022-12-29T01:43:41;5.80;99.90
18593;DHT22;9426;54.118;17.948;2022-12-29T01:49:13;5.90;99.90
18593;DHT22;9426;54.118;17.948;2022-12-29T01:54:41;5.90;99.90
18593;DHT22;9426;54.118;17.948;2022-12-29T02:00:07;5.90;99.90
18593;DHT22;9426;54.118;17.948;2022-12-29T02:05:43;5.80;99.90
18593;DHT22;9426;54.118;17.948;2022-12-29T02:11:09;5.90;99.90
18593;DHT22;9426;54.118;17.948;2022-12-29T02:16:42;5.80;99.90
18593;DHT22;9426;54.118;17.948;2022-12-29T02:22:18;5.80;99.90
18593;DHT22;9426;54.118;17.948;2022-12-29T02:27:55;5.80;99.90
18593;DHT22;9426;54.118;17.948;2022-12-29T02:33:36;5.90;99.90
18593;DHT22;9426;54.118;17.948;2022-12-29T02:39:05;5.80;99.90
18593;DHT22;9426;54.118;17.948;2022-12-29T02:44:36;5.80;99.90
18593;DHT22;9426;54.118;17.948;2022-12-29T02:50:08;5.90;99.90
18593;DHT22;9426;54.118;17.948;2022-12-29T02:55:34;5.80;99.90
18593;DHT22;9426;54.118;17.948;2022-12-29T03:01:18;5.80;99.90
18593;DHT22;9426;54.118;17.948;2022-12-29T03:06:52;5.70;99.90
18593;DHT22;9426;54.118;17.948;2022-12-29T03:12:26;5.70;99.90
18593;DHT22;9426;54.118;17.948;2022-12-29T03:18:15;5.70;99.90
18593;DHT22;9426;54.118;17.948;2022-12-29T03:23:41;5.70;99.90
18593;DHT22;9426;54.118;17.948;2022-12-29T03:29:10;5.70;99.90
18593;DHT22;9426;54.118;17.948;2022-12-29T03:34:35;5.70;99.90
18593;DHT22;9426;54.118;17.948;2022-12-29T03:40:02;5.60;99.90
18593;DHT22;9426;54.118;17.948;2022-12-29T03:45:26;5.70;99.90
18593;DHT22;9426;54.118;17.948;2022-12-29T03:50:51;5.60;99.90
18593;DHT22;9426;54.118;17.948;2022-12-29T03:56:18;5.60;99.90
18593;DHT22;9426;54.118;17.948;2022-12-29T04:01:43;5.60;99.90
18593;DHT22;9426;54.118;17.948;2022-12-29T04:07:07;5.60;99.90
18593;DHT22;9426;54.118;17.948;2022-12-29T04:12:32;5.60;99.90
18593;DHT22;9426;54.118;17.948;2022-12-29T04:17:56;5.60;99.90
18593;DHT22;9426;54.118;17.948;2022-12-29T04:23:21;5.60;99.90
18593;DHT22;9426;54.118;17.948;2022-12-29T04:28:46;5.60;99.90
18593;DHT22;9426;54.118;17.948;2022-12-29T04:34:36;5.60;99.90
18593;DHT22;9426;54.118;17.948;2022-12-29T04:40:00;5.60;99.90
18593;DHT22;9426;54.118;17.948;2022-12-29T04:45:26;5.60;99.90
18593;DHT22;9426;54.118;17.948;2022-12-29T04:50:57;5.60;99.90
18593;DHT22;9426;54.118;17.948;2022-12-29T04:56:26;5.60;99.90
18593;DHT22;9426;54.118;17.948;2022-12-29T05:01:51;5.50;99.90
18593;DHT22;9426;54.118;17.948;2022-12-29T05:07:15;5.50;99.90
18593;DHT22;9426;54.118;17.948;2022-12-29T05:12:40;5.50;99.90
18593;DHT22;9426;54.118;17.948;2022-12-29T05:18:05;5.50;99.90
18593;DHT22;9426;54.118;17.948;2022-12-29T05:23:28;5.50;99.90
18593;DHT22;9426;54.118;17.948;2022-12-29T05:29:00;5.50;99.90
18593;DHT22;9426;54.118;17.948;2022-12-29T05:34:25;5.40;99.90
18593;DHT22;9426;54.118;17.948;2022-12-29T05:39:49;5.50;99.90
18593;DHT22;9426;54.118;17.948;2022-12-29T05:45:13;5.50;99.90
18593;DHT22;9426;54.118;17.948;2022-12-29T05:51:01;5.50;99.90
18593;DHT22;9426;54.118;17.948;2022-12-29T05:56:39;5.40;99.90
18593;DHT22;9426;54.118;17.948;2022-12-29T06:02:04;5.40;99.90
18593;DHT22;9426;54.118;17.948;2022-12-29T06:07:30;5.50;99.90
18593;DHT22;9426;54.118;17.948;2022-12-29T06:12:54;5.50;99.90
18593;DHT22;9426;54.118;17.948;2022-12-29T06:18:18;5.60;99.90
18593;DHT22;9426;54.118;17.948;2022-12-29T06:23:43;5.50;99.90
18593;DHT22;9426;54.118;17.948;2022-12-29T06:29:08;5.50;99.90
18593;DHT22;9426;54.118;17.948;2022-12-29T06:34:32;5.50;99.90
18593;DHT22;9426;54.118;17.948;2022-12-29T06:39:57;5.60;99.90
18593;DHT22;9426;54.118;17.948;2022-12-29T06:45:29;5.60;99.90
18593;DHT22;9426;54.118;17.948;2022-12-29T06:50:53;5.70;99.90
18593;DHT22;9426;54.118;17.948;2022-12-29T06:56:19;5.70;99.90
18593;DHT22;9426;54.118;17.948;2022-12-29T07:01:42;5.80;99.90
18593;DHT22;9426;54.118;17.948;2022-12-29T07:07:06;5.70;99.90
18593;DHT22;9426;54.118;17.948;2022-12-29T07:12:31;5.90;99.90
18593;DHT22;9426;54.118;17.948;2022-12-29T07:17:55;5.90;99.90
18593;DHT22;9426;54.118;17.948;2022-12-29T07:23:19;5.90;99.90
18593;DHT22;9426;54.118;17.948;2022-12-29T07:28:44;5.90;99.90
18593;DHT22;9426;54.118;17.948;2022-12-29T07:34:08;6.00;99.90
18593;DHT22;9426;54.118;17.948;2022-12-29T07:39:32;6.00;99.90
18593;DHT22;9426;54.118;17.948;2022-12-29T07:44:57;6.00;99.90
18593;DHT22;9426;54.118;17.948;2022-12-29T07:50:50;6.10;99.90
18593;DHT22;9426;54.118;17.948;2022-12-29T07:56:15;6.20;99.90
18593;DHT22;9426;54.118;17.948;2022-12-29T08:01:40;6.20;99.90
18593;DHT22;9426;54.118;17.948;2022-12-29T08:07:04;6.20;99.90
18593;DHT22;9426;54.118;17.948;2022-12-29T08:12:27;6.30;99.90
18593;DHT22;9426;54.118;17.948;2022-12-29T08:17:52;6.40;99.90
18593;DHT22;9426;54.118;17.948;2022-12-29T08:23:16;6.40;99.90
18593;DHT22;9426;54.118;17.948;2022-12-29T08:28:40;6.40;99.90
18593;DHT22;9426;54.118;17.948;2022-12-29T08:34:05;6.50;99.90
18593;DHT22;9426;54.118;17.948;2022-12-29T08:39:29;6.50;99.90
18593;DHT22;9426;54.118;17.948;2022-12-29T08:44:52;6.50;99.90
18593;DHT22;9426;54.118;17.948;2022-12-29T08:50:17;6.60;99.90
18593;DHT22;9426;54.118;17.948;2022-12-29T08:55:41;6.60;99.90
18593;DHT22;9426;54.118;17.948;2022-12-29T09:01:05;6.70;99.90
18593;DHT22;9426;54.118;17.948;2022-12-29T09:06:30;6.80;99.90
18593;DHT22;9426;54.118;17.948;2022-12-29T09:11:57;6.90;99.90
18593;DHT22;9426;54.118;17.948;2022-12-29T09:17:21;6.90;99.90
18593;DHT22;9426;54.118;17.948;2022-12-29T09:23:23;6.80;99.90
18593;DHT22;9426;54.118;17.948;2022-12-29T09:28:46;6.90;99.90
18593;DHT22;9426;54.118;17.948;2022-12-29T09:34:10;7.00;99.90
18593;DHT22;9426;54.118;17.948;2022-12-29T09:39:35;7.00;99.90
18593;DHT22;9426;54.118;17.948;2022-12-29T09:45:11;7.10;99.90
18593;DHT22;9426;54.118;17.948;2022-12-29T09:50:38;7.10;99.90
18593;DHT22;9426;54.118;17.948;2022-12-29T09:56:04;7.20;99.90
18593;DHT22;9426;54.118;17.948;2022-12-29T10:01:31;7.30;99.90
18593;DHT22;9426;54.118;17.948;2022-12-29T10:07:00;7.30;99.90
18593;DHT22;9426;54.118;17.948;2022-12-29T10:13:01;7.30;99.90
18593;DHT22;9426;54.118;17.948;2022-12-29T10:18:52;7.40;99.90
18593;DHT22;9426;54.118;17.948;2022-12-29T10:24:21;7.60;99.90
18593;DHT22;9426;54.118;17.948;2022-12-29T10:29:49;7.60;99.90
18593;DHT22;9426;54.118;17.948;2022-12-29T10:35:19;7.80;99.90
18593;DHT22;9426;54.118;17.948;2022-12-29T10:40:45;8.00;99.90
18593;DHT22;9426;54.118;17.948;2022-12-29T10:46:14;8.00;99.90
18593;DHT22;9426;54.118;17.948;2022-12-29T10:51:42;8.00;99.90
18593;DHT22;9426;54.118;17.948;2022-12-29T10:57:11;8.00;99.90
18593;DHT22;9426;54.118;17.948;2022-12-29T11:02:56;8.00;99.90
18593;DHT22;9426;54.118;17.948;2022-12-29T11:08:25;7.90;99.90
18593;DHT22;9426;54.118;17.948;2022-12-29T11:13:50;7.90;99.90
18593;DHT22;9426;54.118;17.948;2022-12-29T11:19:27;7.90;99.90
18593;DHT22;9426;54.118;17.948;2022-12-29T11:24:55;7.80;99.90
18593;DHT22;9426;54.118;17.948;2022-12-29T11:30:29;7.80;99.90
18593;DHT22;9426;54.118;17.948;2022-12-29T11:35:58;7.90;99.90
18593;DHT22;9426;54.118;17.948;2022-12-29T11:41:26;7.90;99.90
18593;DHT22;9426;54.118;17.948;2022-12-29T11:46:52;7.90;99.90
18593;DHT22;9426;54.118;17.948;2022-12-29T11:52:21;7.90;99.90
18593;DHT22;9426;54.118;17.948;2022-12-29T11:57:46;7.90;99.90
18593;DHT22;9426;54.118;17.948;2022-12-29T12:03:15;7.90;99.90
18593;DHT22;9426;54.118;17.948;2022-12-29T12:08:45;8.00;99.90
18593;DHT22;9426;54.118;17.948;2022-12-29T12:14:15;8.10;99.90
18593;DHT22;9426;54.118;17.948;2022-12-29T12:20:19;8.10;99.90
18593;DHT22;9426;54.118;17.948;2022-12-29T12:25:51;8.00;99.90
18593;DHT22;9426;54.118;17.948;2022-12-29T12:31:25;8.00;99.90
18593;DHT22;9426;54.118;17.948;2022-12-29T12:37:21;8.10;99.90
18593;DHT22;9426;54.118;17.948;2022-12-29T12:42:57;8.10;99.90
18593;DHT22;9426;54.118;17.948;2022-12-29T12:48:47;8.10;99.90
18593;DHT22;9426;54.118;17.948;2022-12-29T12:54:25;8.20;99.90
18593;DHT22;9426;54.118;17.948;2022-12-29T13:00:01;8.20;99.90
18593;DHT22;9426;54.118;17.948;2022-12-29T13:05:53;8.20;99.90
18593;DHT22;9426;54.118;17.948;2022-12-29T13:11:25;8.10;99.90
18593;DHT22;9426;54.118;17.948;2022-12-29T13:17:01;8.10;99.90
18593;DHT22;9426;54.118;17.948;2022-12-29T13:22:30;8.10;99.90
18593;DHT22;9426;54.118;17.948;2022-12-29T13:28:00;8.00;99.90
18593;DHT22;9426;54.118;17.948;2022-12-29T13:33:35;8.00;99.90
18593;DHT22;9426;54.118;17.948;2022-12-29T13:39:04;8.10;99.90
18593;DHT22;9426;54.118;17.948;2022-12-29T13:44:31;8.10;99.90
18593;DHT22;9426;54.118;17.948;2022-12-29T13:50:00;8.10;99.90
18593;DHT22;9426;54.118;17.948;2022-12-29T13:55:27;8.00;99.90
18593;DHT22;9426;54.118;17.948;2022-12-29T14:00:56;8.00;99.90
18593;DHT22;9426;54.118;17.948;2022-12-29T14:06:24;7.90;99.90
18593;DHT22;9426;54.118;17.948;2022-12-29T14:11:48;7.90;99.90
18593;DHT22;9426;54.118;17.948;2022-12-29T14:17:12;7.90;99.90
18593;DHT22;9426;54.118;17.948;2022-12-29T14:22:56;7.90;99.90
18593;DHT22;9426;54.118;17.948;2022-12-29T14:28:24;7.90;99.90
18593;DHT22;9426;54.118;17.948;2022-12-29T14:34:15;8.00;99.90
18593;DHT22;9426;54.118;17.948;2022-12-29T14:39:41;8.00;99.90
18593;DHT22;9426;54.118;17.948;2022-12-29T14:45:07;7.90;99.90
18593;DHT22;9426;54.118;17.948;2022-12-29T14:50:44;7.80;99.90
18593;DHT22;9426;54.118;17.948;2022-12-29T14:56:11;7.60;99.90
18593;DHT22;9426;54.118;17.948;2022-12-29T15:01:39;7.50;99.90
18593;DHT22;9426;54.118;17.948;2022-12-29T15:07:07;7.40;99.90
18593;DHT22;9426;54.118;17.948;2022-12-29T15:12:38;7.50;99.90
18593;DHT22;9426;54.118;17.948;2022-12-29T15:18:21;7.40;99.90
18593;DHT22;9426;54.118;17.948;2022-12-29T15:23:46;7.50;99.90
18593;DHT22;9426;54.118;17.948;2022-12-29T15:29:33;7.50;99.90
18593;DHT22;9426;54.118;17.948;2022-12-29T15:34:59;7.60;99.90
18593;DHT22;9426;54.118;17.948;2022-12-29T15:40:25;7.80;99.90
18593;DHT22;9426;54.118;17.948;2022-12-29T15:45:51;7.80;99.90
18593;DHT22;9426;54.118;17.948;2022-12-29T15:51:19;7.90;99.90
18593;DHT22;9426;54.118;17.948;2022-12-29T15:56:44;7.90;99.90
18593;DHT22;9426;54.118;17.948;2022-12-29T16:02:10;7.90;99.90
18593;DHT22;9426;54.118;17.948;2022-12-29T16:07:33;8.00;99.90
18593;DHT22;9426;54.118;17.948;2022-12-29T16:13:04;8.20;99.90
18593;DHT22;9426;54.118;17.948;2022-12-29T16:18:33;8.10;99.90
18593;DHT22;9426;54.118;17.948;2022-12-29T16:24:01;8.10;99.90
18593;DHT22;9426;54.118;17.948;2022-12-29T16:29:25;8.10;99.90
18593;DHT22;9426;54.118;17.948;2022-12-29T16:34:52;8.10;99.90
18593;DHT22;9426;54.118;17.948;2022-12-29T16:40:27;8.10;99.90
18593;DHT22;9426;54.118;17.948;2022-12-29T16:46:16;8.10;99.90
18593;DHT22;9426;54.118;17.948;2022-12-29T16:51:42;8.10;99.90
18593;DHT22;9426;54.118;17.948;2022-12-29T16:57:07;8.10;99.90
18593;DHT22;9426;54.118;17.948;2022-12-29T17:02:31;8.10;99.90
18593;DHT22;9426;54.118;17.948;2022-12-29T17:07:57;8.10;99.90
18593;DHT22;9426;54.118;17.948;2022-12-29T17:13:24;8.10;99.90
18593;DHT22;9426;54.118;17.948;2022-12-29T17:18:47;8.10;99.90
18593;DHT22;9426;54.118;17.948;2022-12-29T17:24:15;8.00;99.90
18593;DHT22;9426;54.118;17.948;2022-12-29T17:29:40;7.90;99.90
18593;DHT22;9426;54.118;17.948;2022-12-29T17:35:05;7.80;99.90
18593;DHT22;9426;54.118;17.948;2022-12-29T17:40:31;7.80;99.90
18593;DHT22;9426;54.118;17.948;2022-12-29T17:45:56;7.70;99.90
18593;DHT22;9426;54.118;17.948;2022-12-29T17:51:21;7.70;99.90
18593;DHT22;9426;54.118;17.948;2022-12-29T17:56:46;7.60;99.90
18593;DHT22;9426;54.118;17.948;2022-12-29T18:02:25;7.60;99.90
18593;DHT22;9426;54.118;17.948;2022-12-29T18:07:50;7.70;99.90
18593;DHT22;9426;54.118;17.948;2022-12-29T18:13:19;7.70;99.90
18593;DHT22;9426;54.118;17.948;2022-12-29T18:18:43;7.70;99.90
18593;DHT22;9426;54.118;17.948;2022-12-29T18:24:10;7.70;99.90
18593;DHT22;9426;54.118;17.948;2022-12-29T18:29:37;7.60;99.90
18593;DHT22;9426;54.118;17.948;2022-12-29T18:35:01;7.50;99.90
18593;DHT22;9426;54.118;17.948;2022-12-29T18:40:25;7.50;99.90
18593;DHT22;9426;54.118;17.948;2022-12-29T18:45:50;7.40;99.90
18593;DHT22;9426;54.118;17.948;2022-12-29T18:51:15;7.40;99.90
18593;DHT22;9426;54.118;17.948;2022-12-29T18:56:39;7.20;99.90
18593;DHT22;9426;54.118;17.948;2022-12-29T19:02:04;7.30;99.90
18593;DHT22;9426;54.118;17.948;2022-12-29T19:07:28;7.30;99.90
18593;DHT22;9426;54.118;17.948;2022-12-29T19:12:52;7.20;99.90
18593;DHT22;9426;54.118;17.948;2022-12-29T19:18:20;7.20;99.90
18593;DHT22;9426;54.118;17.948;2022-12-29T19:24:05;7.20;99.90
18593;DHT22;9426;54.118;17.948;2022-12-29T19:29:29;7.20;99.90
18593;DHT22;9426;54.118;17.948;2022-12-29T19:34:54;7.20;99.90
18593;DHT22;9426;54.118;17.948;2022-12-29T19:40:19;7.20;99.90
18593;DHT22;9426;54.118;17.948;2022-12-29T19:45:44;7.20;99.90
18593;DHT22;9426;54.118;17.948;2022-12-29T19:51:11;7.00;99.90
18593;DHT22;9426;54.118;17.948;2022-12-29T19:56:36;7.00;99.90
18593;DHT22;9426;54.118;17.948;2022-12-29T20:02:03;6.90;99.90
18593;DHT22;9426;54.118;17.948;2022-12-29T20:07:28;6.90;99.90
18593;DHT22;9426;54.118;17.948;2022-12-29T20:12:52;6.80;99.90
18593;DHT22;9426;54.118;17.948;2022-12-29T20:18:16;6.70;99.90
18593;DHT22;9426;54.118;17.948;2022-12-29T20:23:43;6.60;99.90
18593;DHT22;9426;54.118;17.948;2022-12-29T20:29:07;6.60;99.90
18593;DHT22;9426;54.118;17.948;2022-12-29T20:34:31;6.60;99.90
18593;DHT22;9426;54.118;17.948;2022-12-29T20:39:56;6.50;99.90
18593;DHT22;9426;54.118;17.948;2022-12-29T20:45:20;6.50;99.90
18593;DHT22;9426;54.118;17.948;2022-12-29T20:50:44;6.50;99.90
18593;DHT22;9426;54.118;17.948;2022-12-29T20:56:13;6.70;99.90
18593;DHT22;9426;54.118;17.948;2022-12-29T21:01:37;6.80;99.90
18593;DHT22;9426;54.118;17.948;2022-12-29T21:07:01;6.80;99.90
18593;DHT22;9426;54.118;17.948;2022-12-29T21:12:26;6.90;99.90
18593;DHT22;9426;54.118;17.948;2022-12-29T21:17:50;6.90;99.90
18593;DHT22;9426;54.118;17.948;2022-12-29T21:23:14;6.90;99.90
18593;DHT22;9426;54.118;17.948;2022-12-29T21:28:40;6.90;99.90
18593;DHT22;9426;54.118;17.948;2022-12-29T21:34:05;7.00;99.90
18593;DHT22;9426;54.118;17.948;2022-12-29T21:39:28;6.90;99.90
18593;DHT22;9426;54.118;17.948;2022-12-29T21:44:53;7.00;99.90
18593;DHT22;9426;54.118;17.948;2022-12-29T21:50:38;7.10;99.90
18593;DHT22;9426;54.118;17.948;2022-12-29T21:56:22;7.30;99.90
18593;DHT22;9426;54.118;17.948;2022-12-29T22:01:49;7.20;99.90
18593;DHT22;9426;54.118;17.948;2022-12-29T22:07:30;7.30;99.90
18593;DHT22;9426;54.118;17.948;2022-12-29T22:13:13;7.30;99.90
18593;DHT22;9426;54.118;17.948;2022-12-29T22:18:38;7.40;99.90
18593;DHT22;9426;54.118;17.948;2022-12-29T22:24:02;7.40;99.90
18593;DHT22;9426;54.118;17.948;2022-12-29T22:29:25;7.20;99.90
18593;DHT22;9426;54.118;17.948;2022-12-29T22:34:51;7.20;99.90
18593;DHT22;9426;54.118;17.948;2022-12-29T22:40:15;7.30;99.90
18593;DHT22;9426;54.118;17.948;2022-12-29T22:45:39;7.20;99.90
18593;DHT22;9426;54.118;17.948;2022-12-29T22:51:04;7.20;99.90
18593;DHT22;9426;54.118;17.948;2022-12-29T22:56:28;7.00;99.90
18593;DHT22;9426;54.118;17.948;2022-12-29T23:01:52;6.80;99.90
18593;DHT22;9426;54.118;17.948;2022-12-29T23:07:17;6.60;99.90
18593;DHT22;9426;54.118;17.948;2022-12-29T23:12:41;6.50;99.90
18593;DHT22;9426;54.118;17.948;2022-12-29T23:18:05;6.30;99.90
18593;DHT22;9426;54.118;17.948;2022-12-29T23:23:30;6.20;99.90
18593;DHT22;9426;54.118;17.948;2022-12-29T23:29:12;6.20;99.90
18593;DHT22;9426;54.118;17.948;2022-12-29T23:34:36;6.30;99.90
18593;DHT22;9426;54.118;17.948;2022-12-29T23:40:02;6.30;99.90
18593;DHT22;9426;54.118;17.948;2022-12-29T23:45:25;6.40;99.90
18593;DHT22;9426;54.118;17.948;2022-12-29T23:50:49;6.40;99.90
18593;DHT22;9426;54.118;17.948;2022-12-29T23:56:15;6.30;99.90
